sensor_id;sensor_type;location;lat;lon;timestamp;P1;durP1;ratioP1;P2;durP2;ratioP2
38085;SDS011;23896;50.678;10.924;2024-03-17T11:31:41;6.32;;;4.05;;
38085;SDS011;23896;50.678;10.924;2024-03-17T11:36:46;4.20;;;3.60;;
38085;SDS011;23896;50.678;10.924;2024-03-17T11:39:17;6.95;;;3.95;;
38085;SDS011;23896;50.678;10.924;2024-03-17T11:41:48;4.22;;;3.92;;
38085;SDS011;23896;50.678;10.924;2024-03-17T11:44:24;6.60;;;4.30;;
38085;SDS011;23896;50.678;10.924;2024-03-17T11:46:52;4.90;;;4.40;;
38085;SDS011;23896;50.678;10.924;2024-03-17T11:49:23;4.63;;;3.50;;
38085;SDS011;23896;50.678;10.924;2024-03-17T11:51:50;7.15;;;3.67;;
38085;SDS011;23896;50.678;10.924;2024-03-17T11:54:17;4.22;;;3.13;;
38085;SDS011;23896;50.678;10.924;2024-03-17T11:56:45;7.90;;;4.25;;
38085;SDS011;23896;50.678;10.924;2024-03-17T11:59:12;5.55;;;3.30;;
38085;SDS011;23896;50.678;10.924;2024-03-17T12:01:39;4.75;;;3.25;;
38085;SDS011;23896;50.678;10.924;2024-03-17T12:04:05;5.10;;;3.97;;
38085;SDS011;23896;50.678;10.924;2024-03-17T12:06:32;6.05;;;3.55;;
38085;SDS011;23896;50.678;10.924;2024-03-17T12:24:26;4.55;;;3.40;;
38085;SDS011;23896;50.678;10.924;2024-03-17T12:26:52;5.93;;;3.25;;
38085;SDS011;23896;50.678;10.924;2024-03-17T12:31:52;3.90;;;3.03;;
38085;SDS011;23896;50.678;10.924;2024-03-17T12:34:19;5.45;;;3.58;;
38085;SDS011;23896;50.678;10.924;2024-03-17T12:36:45;5.50;;;4.13;;
38085;SDS011;23896;50.678;10.924;2024-03-17T12:39:22;5.38;;;2.92;;
38085;SDS011;23896;50.678;10.924;2024-03-17T12:44:28;5.95;;;3.10;;
38085;SDS011;23896;50.678;10.924;2024-03-17T12:47:07;4.38;;;3.17;;
38085;SDS011;23896;50.678;10.924;2024-03-17T12:49:35;7.47;;;3.22;;
38085;SDS011;23896;50.678;10.924;2024-03-17T12:52:01;4.82;;;3.80;;
38085;SDS011;23896;50.678;10.924;2024-03-17T12:54:28;4.57;;;3.03;;
38085;SDS011;23896;50.678;10.924;2024-03-17T12:57:05;5.68;;;4.05;;
38085;SDS011;23896;50.678;10.924;2024-03-17T12:59:44;6.07;;;3.47;;
38085;SDS011;23896;50.678;10.924;2024-03-17T13:02:22;4.05;;;3.17;;
38085;SDS011;23896;50.678;10.924;2024-03-17T13:07:30;5.95;;;3.65;;
38085;SDS011;23896;50.678;10.924;2024-03-17T13:09:56;4.68;;;2.95;;
38085;SDS011;23896;50.678;10.924;2024-03-17T13:12:23;5.35;;;3.00;;
38085;SDS011;23896;50.678;10.924;2024-03-17T13:14:49;3.40;;;3.08;;
38085;SDS011;23896;50.678;10.924;2024-03-17T13:17:15;5.35;;;2.63;;
38085;SDS011;23896;50.678;10.924;2024-03-17T13:19:45;2.33;;;2.13;;
38085;SDS011;23896;50.678;10.924;2024-03-17T13:22:12;3.80;;;2.92;;
38085;SDS011;23896;50.678;10.924;2024-03-17T13:24:38;2.83;;;2.50;;
38085;SDS011;23896;50.678;10.924;2024-03-17T13:27:04;3.15;;;2.60;;
38085;SDS011;23896;50.678;10.924;2024-03-17T13:29:36;4.13;;;2.28;;
38085;SDS011;23896;50.678;10.924;2024-03-17T13:32:04;2.03;;;1.80;;
38085;SDS011;23896;50.678;10.924;2024-03-17T13:34:32;4.18;;;2.30;;
38085;SDS011;23896;50.678;10.924;2024-03-17T13:36:58;4.03;;;2.55;;
38085;SDS011;23896;50.678;10.924;2024-03-17T13:39:30;2.75;;;2.50;;
38085;SDS011;23896;50.678;10.924;2024-03-17T13:41:58;2.72;;;2.38;;
38085;SDS011;23896;50.678;10.924;2024-03-17T13:44:29;3.58;;;2.80;;
38085;SDS011;23896;50.678;10.924;2024-03-17T13:46:55;5.10;;;3.10;;
38085;SDS011;23896;50.678;10.924;2024-03-17T13:49:35;4.07;;;3.20;;
38085;SDS011;23896;50.678;10.924;2024-03-17T13:52:01;8.32;;;3.80;;
38085;SDS011;23896;50.678;10.924;2024-03-17T13:54:29;4.93;;;3.25;;
38085;SDS011;23896;50.678;10.924;2024-03-17T13:56:56;5.72;;;3.65;;
38085;SDS011;23896;50.678;10.924;2024-03-17T13:59:37;3.03;;;2.50;;
38085;SDS011;23896;50.678;10.924;2024-03-17T14:02:03;2.30;;;2.08;;
38085;SDS011;23896;50.678;10.924;2024-03-17T14:04:32;5.15;;;3.30;;
38085;SDS011;23896;50.678;10.924;2024-03-17T14:06:59;4.75;;;2.45;;
38085;SDS011;23896;50.678;10.924;2024-03-17T14:09:29;4.75;;;2.83;;
38085;SDS011;23896;50.678;10.924;2024-03-17T14:11:55;4.88;;;2.65;;
38085;SDS011;23896;50.678;10.924;2024-03-17T14:14:22;4.05;;;2.47;;
38085;SDS011;23896;50.678;10.924;2024-03-17T14:16:48;5.10;;;2.60;;
38085;SDS011;23896;50.678;10.924;2024-03-17T14:19:22;3.65;;;2.88;;
38085;SDS011;23896;50.678;10.924;2024-03-17T14:21:48;4.32;;;2.55;;
38085;SDS011;23896;50.678;10.924;2024-03-17T14:24:16;2.70;;;2.50;;
38085;SDS011;23896;50.678;10.924;2024-03-17T14:26:45;6.18;;;4.03;;
38085;SDS011;23896;50.678;10.924;2024-03-17T14:29:18;10.88;;;5.22;;
38085;SDS011;23896;50.678;10.924;2024-03-17T14:31:44;3.93;;;2.90;;
38085;SDS011;23896;50.678;10.924;2024-03-17T14:34:10;3.38;;;2.55;;
38085;SDS011;23896;50.678;10.924;2024-03-17T14:36:42;5.50;;;2.80;;
38085;SDS011;23896;50.678;10.924;2024-03-17T14:39:10;3.55;;;3.20;;
38085;SDS011;23896;50.678;10.924;2024-03-17T14:41:36;6.65;;;2.70;;
38085;SDS011;23896;50.678;10.924;2024-03-17T14:44:02;6.45;;;4.07;;
38085;SDS011;23896;50.678;10.924;2024-03-17T14:46:29;4.18;;;3.15;;
38085;SDS011;23896;50.678;10.924;2024-03-17T14:48:56;6.07;;;4.18;;
38085;SDS011;23896;50.678;10.924;2024-03-17T14:51:22;5.85;;;4.13;;
38085;SDS011;23896;50.678;10.924;2024-03-17T14:53:49;6.50;;;4.70;;
38085;SDS011;23896;50.678;10.924;2024-03-17T14:56:17;7.15;;;4.80;;
38085;SDS011;23896;50.678;10.924;2024-03-17T14:58:47;5.10;;;4.55;;
38085;SDS011;23896;50.678;10.924;2024-03-17T15:01:19;5.40;;;4.70;;
38085;SDS011;23896;50.678;10.924;2024-03-17T15:03:45;5.85;;;4.47;;
38085;SDS011;23896;50.678;10.924;2024-03-17T15:06:12;8.38;;;4.95;;
38085;SDS011;23896;50.678;10.924;2024-03-17T15:08:41;8.70;;;4.63;;
38085;SDS011;23896;50.678;10.924;2024-03-17T15:11:07;7.07;;;5.50;;
38085;SDS011;23896;50.678;10.924;2024-03-17T15:13:34;7.57;;;6.45;;
38085;SDS011;23896;50.678;10.924;2024-03-17T15:16:01;6.07;;;4.65;;
38085;SDS011;23896;50.678;10.924;2024-03-17T15:18:44;6.28;;;5.68;;
38085;SDS011;23896;50.678;10.924;2024-03-17T15:21:23;6.60;;;5.72;;
38085;SDS011;23896;50.678;10.924;2024-03-17T15:23:49;7.88;;;5.40;;
38085;SDS011;23896;50.678;10.924;2024-03-17T15:26:16;6.43;;;5.50;;
38085;SDS011;23896;50.678;10.924;2024-03-17T15:28:44;6.13;;;5.50;;
38085;SDS011;23896;50.678;10.924;2024-03-17T15:31:11;9.00;;;6.53;;
38085;SDS011;23896;50.678;10.924;2024-03-17T15:33:44;5.40;;;4.90;;
38085;SDS011;23896;50.678;10.924;2024-03-17T15:36:10;10.38;;;5.80;;
38085;SDS011;23896;50.678;10.924;2024-03-17T15:38:39;7.00;;;5.32;;
38085;SDS011;23896;50.678;10.924;2024-03-17T15:41:12;8.93;;;5.70;;
38085;SDS011;23896;50.678;10.924;2024-03-17T15:43:50;5.88;;;5.28;;
38085;SDS011;23896;50.678;10.924;2024-03-17T15:46:18;8.00;;;5.78;;
38085;SDS011;23896;50.678;10.924;2024-03-17T15:48:50;7.00;;;5.45;;
38085;SDS011;23896;50.678;10.924;2024-03-17T15:51:16;7.40;;;6.47;;
38085;SDS011;23896;50.678;10.924;2024-03-17T15:53:44;7.68;;;5.93;;
38085;SDS011;23896;50.678;10.924;2024-03-17T15:56:10;7.88;;;5.72;;
38085;SDS011;23896;50.678;10.924;2024-03-17T15:58:39;7.28;;;6.47;;
38085;SDS011;23896;50.678;10.924;2024-03-17T16:01:05;10.38;;;7.00;;
38085;SDS011;23896;50.678;10.924;2024-03-17T16:03:33;7.97;;;6.70;;
38085;SDS011;23896;50.678;10.924;2024-03-17T16:06:04;9.23;;;6.15;;
38085;SDS011;23896;50.678;10.924;2024-03-17T16:08:38;9.70;;;7.23;;
38085;SDS011;23896;50.678;10.924;2024-03-17T16:11:05;9.80;;;6.72;;
38085;SDS011;23896;50.678;10.924;2024-03-17T16:13:36;11.40;;;8.27;;
38085;SDS011;23896;50.678;10.924;2024-03-17T16:16:04;7.28;;;6.55;;
38085;SDS011;23896;50.678;10.924;2024-03-17T16:18:33;6.70;;;6.00;;
38085;SDS011;23896;50.678;10.924;2024-03-17T16:21:05;7.88;;;5.70;;
38085;SDS011;23896;50.678;10.924;2024-03-17T16:23:33;6.97;;;5.57;;
38085;SDS011;23896;50.678;10.924;2024-03-17T16:26:07;7.43;;;6.20;;
38085;SDS011;23896;50.678;10.924;2024-03-17T16:28:35;6.65;;;5.78;;
38085;SDS011;23896;50.678;10.924;2024-03-17T16:31:04;9.25;;;6.35;;
38085;SDS011;23896;50.678;10.924;2024-03-17T16:33:34;7.47;;;5.57;;
38085;SDS011;23896;50.678;10.924;2024-03-17T16:36:12;8.65;;;6.75;;
38085;SDS011;23896;50.678;10.924;2024-03-17T16:38:39;7.30;;;6.55;;
38085;SDS011;23896;50.678;10.924;2024-03-17T16:41:07;12.10;;;8.63;;
38085;SDS011;23896;50.678;10.924;2024-03-17T16:43:50;7.03;;;6.32;;
38085;SDS011;23896;50.678;10.924;2024-03-17T16:49:07;7.15;;;5.80;;
38085;SDS011;23896;50.678;10.924;2024-03-17T16:51:41;9.88;;;6.53;;
38085;SDS011;23896;50.678;10.924;2024-03-17T16:54:08;7.50;;;6.57;;
38085;SDS011;23896;50.678;10.924;2024-03-17T16:56:39;8.00;;;6.88;;
38085;SDS011;23896;50.678;10.924;2024-03-17T16:59:06;9.70;;;6.80;;
38085;SDS011;23896;50.678;10.924;2024-03-17T17:01:39;7.72;;;6.20;;
38085;SDS011;23896;50.678;10.924;2024-03-17T17:04:11;8.82;;;6.75;;
38085;SDS011;23896;50.678;10.924;2024-03-17T17:06:38;9.13;;;6.60;;
38085;SDS011;23896;50.678;10.924;2024-03-17T17:09:05;8.05;;;6.15;;
38085;SDS011;23896;50.678;10.924;2024-03-17T17:11:37;6.70;;;6.00;;
38085;SDS011;23896;50.678;10.924;2024-03-17T17:14:07;7.85;;;6.53;;
38085;SDS011;23896;50.678;10.924;2024-03-17T17:16:36;9.93;;;7.10;;
38085;SDS011;23896;50.678;10.924;2024-03-17T17:19:03;8.15;;;6.85;;
38085;SDS011;23896;50.678;10.924;2024-03-17T17:21:35;11.35;;;8.50;;
38085;SDS011;23896;50.678;10.924;2024-03-17T17:24:15;10.75;;;7.90;;
38085;SDS011;23896;50.678;10.924;2024-03-17T17:26:54;13.05;;;9.15;;
38085;SDS011;23896;50.678;10.924;2024-03-17T17:29:22;13.38;;;8.65;;
38085;SDS011;23896;50.678;10.924;2024-03-17T17:32:03;15.38;;;8.85;;
38085;SDS011;23896;50.678;10.924;2024-03-17T17:34:34;11.77;;;7.75;;
38085;SDS011;23896;50.678;10.924;2024-03-17T17:37:02;11.75;;;8.18;;
38085;SDS011;23896;50.678;10.924;2024-03-17T17:39:38;10.55;;;8.48;;
38085;SDS011;23896;50.678;10.924;2024-03-17T17:42:06;8.57;;;7.70;;
38085;SDS011;23896;50.678;10.924;2024-03-17T17:44:35;9.93;;;7.20;;
38085;SDS011;23896;50.678;10.924;2024-03-17T17:47:02;12.00;;;7.90;;
38085;SDS011;23896;50.678;10.924;2024-03-17T17:49:28;11.75;;;8.30;;
38085;SDS011;23896;50.678;10.924;2024-03-17T17:52:02;10.38;;;7.63;;
38085;SDS011;23896;50.678;10.924;2024-03-17T17:54:31;9.52;;;8.38;;
38085;SDS011;23896;50.678;10.924;2024-03-17T17:57:01;9.75;;;6.07;;
38085;SDS011;23896;50.678;10.924;2024-03-17T17:59:27;10.55;;;6.68;;
38085;SDS011;23896;50.678;10.924;2024-03-17T18:01:57;11.25;;;6.72;;
38085;SDS011;23896;50.678;10.924;2024-03-17T18:04:24;8.98;;;6.68;;
38085;SDS011;23896;50.678;10.924;2024-03-17T18:07:06;8.10;;;6.85;;
38085;SDS011;23896;50.678;10.924;2024-03-17T18:09:41;10.55;;;7.10;;
38085;SDS011;23896;50.678;10.924;2024-03-17T18:12:12;11.80;;;7.53;;
38085;SDS011;23896;50.678;10.924;2024-03-17T18:14:50;11.13;;;7.82;;
38085;SDS011;23896;50.678;10.924;2024-03-17T18:17:18;11.85;;;7.70;;
38085;SDS011;23896;50.678;10.924;2024-03-17T18:19:54;10.60;;;8.32;;
38085;SDS011;23896;50.678;10.924;2024-03-17T18:22:28;12.65;;;8.93;;
38085;SDS011;23896;50.678;10.924;2024-03-17T18:24:55;11.32;;;8.98;;
38085;SDS011;23896;50.678;10.924;2024-03-17T18:27:22;10.18;;;9.05;;
38085;SDS011;23896;50.678;10.924;2024-03-17T18:29:52;15.30;;;10.23;;
38085;SDS011;23896;50.678;10.924;2024-03-17T18:32:24;11.10;;;8.98;;
38085;SDS011;23896;50.678;10.924;2024-03-17T18:34:55;15.52;;;10.13;;
38085;SDS011;23896;50.678;10.924;2024-03-17T18:37:24;23.20;;;14.18;;
38085;SDS011;23896;50.678;10.924;2024-03-17T18:39:52;26.90;;;16.88;;
38085;SDS011;23896;50.678;10.924;2024-03-17T18:42:18;21.25;;;14.00;;
38085;SDS011;23896;50.678;10.924;2024-03-17T18:44:54;9.48;;;8.48;;
38085;SDS011;23896;50.678;10.924;2024-03-17T18:47:20;9.38;;;7.63;;
38085;SDS011;23896;50.678;10.924;2024-03-17T18:49:50;8.90;;;6.88;;
38085;SDS011;23896;50.678;10.924;2024-03-17T18:52:16;9.10;;;6.93;;
38085;SDS011;23896;50.678;10.924;2024-03-17T18:54:45;9.63;;;7.07;;
38085;SDS011;23896;50.678;10.924;2024-03-17T18:57:14;7.60;;;6.60;;
38085;SDS011;23896;50.678;10.924;2024-03-17T19:02:41;15.57;;;9.60;;
38085;SDS011;23896;50.678;10.924;2024-03-17T19:05:10;12.68;;;9.00;;
38085;SDS011;23896;50.678;10.924;2024-03-17T19:07:37;18.25;;;10.68;;
38085;SDS011;23896;50.678;10.924;2024-03-17T19:10:03;14.27;;;9.88;;
38085;SDS011;23896;50.678;10.924;2024-03-17T19:12:31;14.90;;;8.88;;
38085;SDS011;23896;50.678;10.924;2024-03-17T19:14:58;14.55;;;8.52;;
38085;SDS011;23896;50.678;10.924;2024-03-17T19:17:26;9.75;;;7.55;;
38085;SDS011;23896;50.678;10.924;2024-03-17T19:19:55;10.10;;;7.65;;
38085;SDS011;23896;50.678;10.924;2024-03-17T19:22:22;8.30;;;7.40;;
38085;SDS011;23896;50.678;10.924;2024-03-17T19:24:55;11.23;;;7.55;;
38085;SDS011;23896;50.678;10.924;2024-03-17T19:27:22;12.73;;;7.07;;
38085;SDS011;23896;50.678;10.924;2024-03-17T19:29:48;8.13;;;6.00;;
38085;SDS011;23896;50.678;10.924;2024-03-17T19:32:14;11.43;;;6.43;;
38085;SDS011;23896;50.678;10.924;2024-03-17T19:34:40;8.45;;;6.43;;
38085;SDS011;23896;50.678;10.924;2024-03-17T20:02:32;7.55;;;5.53;;
38085;SDS011;23896;50.678;10.924;2024-03-17T20:05:00;9.38;;;5.53;;
38085;SDS011;23896;50.678;10.924;2024-03-17T20:07:34;9.10;;;6.03;;
38085;SDS011;23896;50.678;10.924;2024-03-17T20:10:01;10.50;;;6.45;;
38085;SDS011;23896;50.678;10.924;2024-03-17T20:12:31;8.73;;;6.93;;
38085;SDS011;23896;50.678;10.924;2024-03-17T20:15:01;11.30;;;6.97;;
38085;SDS011;23896;50.678;10.924;2024-03-17T20:17:30;7.50;;;6.72;;
38085;SDS011;23896;50.678;10.924;2024-03-17T20:20:09;8.30;;;7.00;;
38085;SDS011;23896;50.678;10.924;2024-03-17T20:22:37;7.60;;;6.68;;
38085;SDS011;23896;50.678;10.924;2024-03-17T20:25:03;8.80;;;6.75;;
38085;SDS011;23896;50.678;10.924;2024-03-17T20:27:31;12.27;;;8.75;;
38085;SDS011;23896;50.678;10.924;2024-03-17T20:29:57;8.43;;;6.75;;
38085;SDS011;23896;50.678;10.924;2024-03-17T20:32:24;8.82;;;6.22;;
38085;SDS011;23896;50.678;10.924;2024-03-17T20:34:55;13.10;;;6.82;;
38085;SDS011;23896;50.678;10.924;2024-03-17T20:37:23;7.53;;;6.32;;
38085;SDS011;23896;50.678;10.924;2024-03-17T20:39:53;9.60;;;6.15;;
38085;SDS011;23896;50.678;10.924;2024-03-17T20:42:32;9.10;;;7.38;;
38085;SDS011;23896;50.678;10.924;2024-03-17T20:45:01;8.73;;;6.53;;
38085;SDS011;23896;50.678;10.924;2024-03-17T20:47:44;9.32;;;6.57;;
38085;SDS011;23896;50.678;10.924;2024-03-17T20:58:41;9.40;;;6.43;;
38085;SDS011;23896;50.678;10.924;2024-03-17T21:01:29;7.75;;;5.72;;
38085;SDS011;23896;50.678;10.924;2024-03-17T21:03:55;8.20;;;6.13;;
38085;SDS011;23896;50.678;10.924;2024-03-17T21:06:44;7.40;;;5.65;;
38085;SDS011;23896;50.678;10.924;2024-03-17T21:09:13;8.23;;;6.25;;
38085;SDS011;23896;50.678;10.924;2024-03-17T21:11:43;8.65;;;6.70;;
38085;SDS011;23896;50.678;10.924;2024-03-17T21:14:10;9.30;;;6.85;;
38085;SDS011;23896;50.678;10.924;2024-03-17T21:16:37;7.82;;;6.40;;
38085;SDS011;23896;50.678;10.924;2024-03-17T21:19:03;13.02;;;8.18;;
38085;SDS011;23896;50.678;10.924;2024-03-17T21:27:15;9.07;;;5.97;;
38085;SDS011;23896;50.678;10.924;2024-03-17T21:48:11;13.68;;;7.35;;
38085;SDS011;23896;50.678;10.924;2024-03-17T21:57:13;9.90;;;7.15;;
38085;SDS011;23896;50.678;10.924;2024-03-17T21:59:41;8.18;;;5.88;;
38085;SDS011;23896;50.678;10.924;2024-03-17T22:02:09;10.38;;;6.60;;
38085;SDS011;23896;50.678;10.924;2024-03-17T22:04:47;11.50;;;6.80;;
38085;SDS011;23896;50.678;10.924;2024-03-17T22:07:37;9.38;;;5.97;;
38085;SDS011;23896;50.678;10.924;2024-03-17T22:10:06;12.38;;;5.88;;
38085;SDS011;23896;50.678;10.924;2024-03-17T22:12:35;9.63;;;7.25;;
38085;SDS011;23896;50.678;10.924;2024-03-17T22:15:01;9.50;;;5.65;;
38085;SDS011;23896;50.678;10.924;2024-03-17T22:17:30;10.27;;;6.00;;
38085;SDS011;23896;50.678;10.924;2024-03-17T22:20:09;10.07;;;7.25;;
38085;SDS011;23896;50.678;10.924;2024-03-17T22:27:49;8.70;;;5.45;;
38085;SDS011;23896;50.678;10.924;2024-03-17T22:30:17;11.68;;;6.45;;
38085;SDS011;23896;50.678;10.924;2024-03-17T22:32:56;7.10;;;5.13;;
38085;SDS011;23896;50.678;10.924;2024-03-17T22:35:24;10.95;;;5.63;;
38085;SDS011;23896;50.678;10.924;2024-03-17T22:38:01;8.85;;;5.78;;
38085;SDS011;23896;50.678;10.924;2024-03-17T22:40:30;8.30;;;5.35;;
38085;SDS011;23896;50.678;10.924;2024-03-17T22:43:00;8.40;;;5.65;;
38085;SDS011;23896;50.678;10.924;2024-03-17T22:45:30;7.85;;;5.55;;
38085;SDS011;23896;50.678;10.924;2024-03-17T22:47:58;7.00;;;5.05;;
38085;SDS011;23896;50.678;10.924;2024-03-17T22:50:42;4.57;;;4.18;;
38085;SDS011;23896;50.678;10.924;2024-03-17T22:53:32;8.95;;;4.80;;
38085;SDS011;23896;50.678;10.924;2024-03-17T22:56:00;6.05;;;4.32;;
38085;SDS011;23896;50.678;10.924;2024-03-17T22:58:28;6.28;;;4.18;;
38085;SDS011;23896;50.678;10.924;2024-03-17T23:00:54;4.78;;;4.35;;
38085;SDS011;23896;50.678;10.924;2024-03-17T23:06:29;6.50;;;4.70;;
38085;SDS011;23896;50.678;10.924;2024-03-17T23:12:00;5.60;;;4.85;;
38085;SDS011;23896;50.678;10.924;2024-03-17T23:14:31;7.70;;;5.40;;
